Time;durP1;ratioP1;P1;durP2;ratioP2;P2;SDS_P1;SDS_P2;PMS_P1;PMS_P2;Temp;Humidity;BMP_temperature;BMP_pressure;BME280_temperature;BME280_humidity;BME280_pressure;Samples;Min_cycle;Max_cycle;Signal;HPM_P1;HPM_P2
2023/08/31 00:01:39;;;;;;;2.10;1.70;;;13.70;99.90;;;;;;5074790;28;20893;-70
2023/08/31 00:04:08;;;;;;;0.40;0.40;;;14.00;99.90;;;;;;5074584;28;20449;-71
2023/08/31 00:06:34;;;;;;;0.90;0.90;;;13.90;99.90;;;;;;5074848;28;20883;-71
2023/08/31 00:08:59;;;;;;;0.80;0.77;;;13.90;99.90;;;;;;5074540;28;20455;-70
2023/08/31 00:11:25;;;;;;;1.00;0.97;;;13.80;99.90;;;;;;5074825;28;20167;-70
2023/08/31 00:13:52;;;;;;;1.10;0.87;;;13.80;99.90;;;;;;5074666;28;20196;-70
2023/08/31 00:16:23;;;;;;;2.40;1.30;;;13.90;99.90;;;;;;5074342;28;20739;-70
2023/08/31 00:18:49;;;;;;;1.00;0.83;;;13.80;99.90;;;;;;5074089;28;20490;-70
2023/08/31 00:21:14;;;;;;;4.97;1.67;;;13.70;99.90;;;;;;5073998;28;20491;-70
2023/08/31 00:23:40;;;;;;;2.10;0.67;;;13.70;99.90;;;;;;5074343;28;20204;-70
2023/08/31 00:26:06;;;;;;;2.00;0.83;;;13.70;99.90;;;;;;5074151;28;20166;-70
2023/08/31 00:28:32;;;;;;;1.33;1.27;;;13.80;99.90;;;;;;5074665;28;20197;-70
2023/08/31 00:31:03;;;;;;;0.77;0.77;;;13.90;99.90;;;;;;5074155;28;20752;-70
2023/08/31 00:33:29;;;;;;;0.60;0.60;;;13.80;99.90;;;;;;5074373;28;20197;-70
2023/08/31 00:35:57;;;;;;;0.57;0.53;;;13.80;99.90;;;;;;5073963;28;20404;-70
2023/08/31 00:38:23;;;;;;;0.50;0.50;;;13.80;99.90;;;;;;5074267;28;20189;-70
2023/08/31 00:40:48;;;;;;;0.77;0.73;;;13.80;99.90;;;;;;5073898;28;20404;-70
2023/08/31 00:43:20;;;;;;;0.50;0.50;;;13.80;99.90;;;;;;5073968;28;20191;-70
2023/08/31 00:45:48;;;;;;;0.93;0.93;;;13.80;99.90;;;;;;5073871;28;20172;-71
2023/08/31 00:48:19;;;;;;;3.90;0.83;;;13.80;99.90;;;;;;5073827;28;20412;-70
2023/08/31 00:50:46;;;;;;;1.60;0.53;;;13.80;99.90;;;;;;5074071;28;20412;-70
2023/08/31 00:53:12;;;;;;;0.93;0.93;;;13.90;99.90;;;;;;5073749;28;20517;-70
2023/08/31 00:55:40;;;;;;;0.50;0.50;;;13.90;99.90;;;;;;5073639;28;20450;-71
2023/08/31 00:58:06;;;;;;;0.43;0.43;;;13.80;99.90;;;;;;5073929;28;20401;-70
2023/08/31 01:00:44;;;;;;;0.40;0.40;;;13.90;99.90;;;;;;5073664;28;20399;-70
2023/08/31 01:03:16;;;;;;;0.40;0.40;;;13.80;99.90;;;;;;5073842;28;20431;-70
2023/08/31 01:06:03;;;;;;;0.43;0.43;;;13.70;99.90;;;;;;5073427;28;20411;-70
2023/08/31 01:08:34;;;;;;;5.43;1.17;;;13.60;99.90;;;;;;5073513;28;20915;-70
2023/08/31 01:11:27;;;;;;;0.57;0.50;;;13.70;99.90;;;;;;5073445;28;20403;-70
2023/08/31 01:14:15;;;;;;;0.50;0.50;;;13.80;99.90;;;;;;5073501;28;20430;-70
2023/08/31 01:16:43;;;;;;;0.67;0.67;;;13.60;99.90;;;;;;5073722;28;20408;-70
2023/08/31 01:19:32;;;;;;;0.70;0.60;;;13.60;99.90;;;;;;5073479;28;20400;-70
2023/08/31 01:22:00;;;;;;;1.37;1.27;;;13.70;99.90;;;;;;5073552;28;20423;-70
2023/08/31 01:24:27;;;;;;;0.73;0.50;;;13.60;99.90;;;;;;5073205;28;20409;-70
2023/08/31 01:26:53;;;;;;;1.07;0.50;;;13.70;99.90;;;;;;5073405;28;20909;-71
2023/08/31 01:29:19;;;;;;;0.60;0.60;;;13.70;99.90;;;;;;5073500;28;20546;-70
2023/08/31 01:31:45;;;;;;;0.73;0.73;;;13.70;99.90;;;;;;5073258;28;20483;-70
2023/08/31 01:34:11;;;;;;;0.87;0.87;;;13.60;99.90;;;;;;5073305;28;20500;-70
2023/08/31 01:36:40;;;;;;;1.37;1.27;;;13.60;99.90;;;;;;5073262;28;20170;-70
2023/08/31 01:39:19;;;;;;;0.80;0.80;;;13.60;99.90;;;;;;5073195;28;20404;-70
2023/08/31 01:41:51;;;;;;;0.93;0.93;;;13.30;99.90;;;;;;5073194;28;20405;-70
2023/08/31 01:44:19;;;;;;;3.57;1.43;;;13.50;99.90;;;;;;5073211;28;20382;-70
2023/08/31 01:46:55;;;;;;;0.60;0.60;;;13.50;99.90;;;;;;5073277;28;20400;-70
2023/08/31 01:49:21;;;;;;;2.97;1.13;;;13.40;99.90;;;;;;5072984;28;20470;-70
2023/08/31 01:51:47;;;;;;;0.60;0.60;;;13.10;99.90;;;;;;5073180;28;20415;-70
2023/08/31 01:54:13;;;;;;;1.10;1.10;;;13.20;99.90;;;;;;5072959;28;20165;-70
2023/08/31 01:56:38;;;;;;;1.10;1.10;;;13.30;99.90;;;;;;5073031;28;20193;-70
2023/08/31 01:59:04;;;;;;;0.60;0.60;;;13.30;99.90;;;;;;5073172;28;20461;-70
2023/08/31 02:01:32;;;;;;;0.60;0.53;;;13.40;99.90;;;;;;5072940;28;20166;-70
2023/08/31 02:03:58;;;;;;;0.90;0.70;;;13.50;99.90;;;;;;5072812;28;20182;-70
2023/08/31 02:06:23;;;;;;;0.73;0.73;;;13.50;99.90;;;;;;5072881;28;20459;-70
2023/08/31 02:08:49;;;;;;;1.53;1.43;;;13.50;99.90;;;;;;5072933;28;20185;-70
2023/08/31 02:11:15;;;;;;;0.63;0.63;;;13.50;99.90;;;;;;5072840;28;20165;-70
2023/08/31 02:13:41;;;;;;;1.70;0.73;;;13.60;99.90;;;;;;5072969;28;20270;-70
2023/08/31 02:16:07;;;;;;;3.70;1.37;;;13.50;99.90;;;;;;5072758;28;20195;-70
2023/08/31 02:18:33;;;;;;;2.63;0.97;;;13.50;99.90;;;;;;5072989;28;20440;-70
2023/08/31 02:20:58;;;;;;;0.43;0.43;;;13.50;99.90;;;;;;5072956;28;20560;-70
2023/08/31 02:23:24;;;;;;;0.50;0.50;;;13.50;99.90;;;;;;5072781;28;20190;-70
2023/08/31 02:25:49;;;;;;;0.60;0.60;;;13.60;99.90;;;;;;5072608;28;20277;-70
2023/08/31 02:28:17;;;;;;;0.60;0.60;;;13.60;99.90;;;;;;5073077;28;20241;-70
2023/08/31 02:30:44;;;;;;;0.63;0.63;;;13.50;99.90;;;;;;5073101;28;20176;-70
2023/08/31 02:33:10;;;;;;;0.97;0.97;;;;;;;;;;5072633;28;20427;-70
2023/08/31 02:35:35;;;;;;;0.70;0.70;;;13.40;99.90;;;;;;5072438;28;20402;-70
2023/08/31 02:38:02;;;;;;;0.70;0.70;;;13.50;99.90;;;;;;5072698;28;20725;-70
2023/08/31 02:40:27;;;;;;;1.70;1.60;;;13.60;99.90;;;;;;5072942;28;20169;-70
2023/08/31 02:42:53;;;;;;;0.63;0.63;;;13.60;99.90;;;;;;5074004;28;20434;-70
2023/08/31 02:45:19;;;;;;;0.40;0.40;;;13.60;99.90;;;;;;5076220;28;20634;-70
2023/08/31 02:47:44;;;;;;;1.63;0.97;;;13.60;99.90;;;;;;5076446;28;20641;-70
2023/08/31 02:50:10;;;;;;;0.70;0.70;;;13.60;99.90;;;;;;5076017;28;20588;-70
2023/08/31 02:52:36;;;;;;;2.70;1.13;;;13.70;99.90;;;;;;5076070;28;20189;-70
2023/08/31 02:55:02;;;;;;;4.00;1.37;;;13.60;99.90;;;;;;5076076;28;20660;-70
2023/08/31 02:57:27;;;;;;;0.70;0.70;;;13.60;99.90;;;;;;5075967;28;20168;-70
2023/08/31 02:59:53;;;;;;;0.40;0.40;;;13.50;99.90;;;;;;5076063;28;20414;-70
2023/08/31 03:02:19;;;;;;;0.40;0.40;;;13.60;99.90;;;;;;5075979;28;20189;-70
2023/08/31 03:04:44;;;;;;;0.40;0.40;;;13.60;99.90;;;;;;5075768;28;20173;-71
2023/08/31 03:07:13;;;;;;;0.60;0.60;;;13.60;99.90;;;;;;5075919;28;20170;-70
2023/08/31 03:09:39;;;;;;;1.30;1.20;;;13.50;99.90;;;;;;5075516;28;20195;-70
2023/08/31 03:12:05;;;;;;;1.17;0.87;;;13.50;99.90;;;;;;5074404;28;20778;-70
2023/08/31 03:14:31;;;;;;;0.60;0.60;;;13.50;99.90;;;;;;5075188;28;20412;-70
2023/08/31 03:16:56;;;;;;;1.83;1.73;;;13.50;99.90;;;;;;5075933;28;20396;-70
2023/08/31 03:19:22;;;;;;;0.40;0.40;;;13.40;99.90;;;;;;5074643;28;20544;-71
2023/08/31 03:21:49;;;;;;;0.80;0.63;;;13.00;99.90;;;;;;5075633;28;20520;-70
2023/08/31 03:24:15;;;;;;;0.50;0.50;;;13.20;99.90;;;;;;5075790;28;20214;-70
2023/08/31 03:26:41;;;;;;;1.40;1.03;;;13.10;99.90;;;;;;5075711;28;20772;-71
2023/08/31 03:29:06;;;;;;;1.83;1.07;;;13.00;99.90;;;;;;5075392;28;20645;-70
2023/08/31 03:31:32;;;;;;;0.83;0.83;;;12.90;99.90;;;;;;5075673;28;20169;-70
2023/08/31 03:33:58;;;;;;;0.40;0.40;;;12.80;99.90;;;;;;5075167;28;20189;-70
2023/08/31 03:36:23;;;;;;;0.60;0.60;;;12.70;99.90;;;;;;5075366;28;20185;-70
2023/08/31 03:38:49;;;;;;;0.50;0.50;;;12.70;99.90;;;;;;5075377;28;20284;-70
2023/08/31 03:41:15;;;;;;;1.77;0.77;;;12.70;99.90;;;;;;5075359;28;20408;-70
2023/08/31 03:43:40;;;;;;;0.80;0.80;;;12.70;99.90;;;;;;5075212;28;20241;-70
2023/08/31 03:46:06;;;;;;;0.50;0.40;;;12.70;99.90;;;;;;5075218;28;20261;-69
2023/08/31 03:48:32;;;;;;;0.30;0.30;;;12.50;99.90;;;;;;5074846;28;20614;-70
2023/08/31 03:50:58;;;;;;;1.60;1.43;;;12.50;99.90;;;;;;5075344;28;20177;-70
2023/08/31 03:53:23;;;;;;;0.50;0.50;;;12.40;99.90;;;;;;5074655;28;20203;-71
2023/08/31 03:55:49;;;;;;;0.50;0.50;;;12.50;99.90;;;;;;5074135;28;20176;-70
2023/08/31 03:58:15;;;;;;;2.30;0.50;;;12.50;99.90;;;;;;5074388;28;20173;-71
2023/08/31 04:00:41;;;;;;;0.60;0.60;;;12.60;99.90;;;;;;5074955;28;20173;-70
2023/08/31 04:03:06;;;;;;;0.60;0.60;;;12.60;99.90;;;;;;5074824;28;20283;-70
2023/08/31 04:05:33;;;;;;;1.33;1.23;;;12.50;99.90;;;;;;5074847;28;20436;-70
2023/08/31 04:07:59;;;;;;;0.70;0.70;;;12.50;99.90;;;;;;5074960;28;20172;-70
2023/08/31 04:10:26;;;;;;;0.67;0.67;;;12.50;99.90;;;;;;5074769;28;20442;-70
2023/08/31 04:12:52;;;;;;;0.90;0.80;;;12.50;99.90;;;;;;5074770;28;20435;-70
2023/08/31 04:15:17;;;;;;;0.90;0.90;;;12.50;99.90;;;;;;5074611;28;20400;-70
2023/08/31 04:17:43;;;;;;;0.50;0.50;;;12.50;99.90;;;;;;5074775;28;20170;-70
2023/08/31 04:20:10;;;;;;;0.93;0.80;;;12.50;99.90;;;;;;5074420;28;20176;-70
2023/08/31 04:22:35;;;;;;;2.20;0.90;;;12.60;99.90;;;;;;5074372;28;20555;-70
2023/08/31 04:25:02;;;;;;;0.40;0.40;;;12.60;99.90;;;;;;5074213;28;20418;-70
2023/08/31 04:27:30;;;;;;;0.90;0.90;;;12.50;99.90;;;;;;5074383;28;20252;-70
2023/08/31 04:29:55;;;;;;;0.53;0.53;;;12.50;99.90;;;;;;5074154;28;20443;-70
2023/08/31 04:32:21;;;;;;;0.87;0.87;;;12.50;99.90;;;;;;5074205;28;20431;-70
2023/08/31 04:34:46;;;;;;;1.40;0.63;;;12.50;99.90;;;;;;5074063;28;20165;-70
2023/08/31 04:37:12;;;;;;;0.83;0.83;;;12.50;99.90;;;;;;5074254;28;20170;-70
2023/08/31 04:39:38;;;;;;;0.73;0.73;;;12.40;99.90;;;;;;5074028;28;20234;-70
2023/08/31 04:42:04;;;;;;;2.00;1.13;;;12.40;99.90;;;;;;5074202;28;20536;-70
2023/08/31 04:44:30;;;;;;;0.60;0.60;;;12.30;99.90;;;;;;5073928;28;20176;-71
2023/08/31 04:46:55;;;;;;;0.83;0.57;;;12.40;99.90;;;;;;5074230;28;20416;-70
2023/08/31 04:49:21;;;;;;;1.10;0.70;;;12.40;99.90;;;;;;5073794;28;20948;-70
2023/08/31 04:51:47;;;;;;;0.97;0.97;;;12.40;99.90;;;;;;5074014;28;20170;-70
2023/08/31 04:54:12;;;;;;;1.27;0.60;;;12.50;99.90;;;;;;5073667;28;20928;-70
2023/08/31 04:56:38;;;;;;;1.03;0.80;;;12.50;99.90;;;;;;5073895;28;20193;-70
2023/08/31 04:59:04;;;;;;;0.70;0.70;;;12.50;99.90;;;;;;5073743;28;20192;-70
2023/08/31 05:01:29;;;;;;;0.40;0.40;;;12.50;99.90;;;;;;5073841;28;20173;-70
2023/08/31 05:03:55;;;;;;;0.93;0.80;;;12.50;99.90;;;;;;5073485;28;20668;-70
2023/08/31 05:06:20;;;;;;;3.30;2.77;;;12.50;99.90;;;;;;5073221;28;20174;-70
2023/08/31 05:08:49;;;;;;;0.40;0.40;;;12.50;99.90;;;;;;5073784;28;20235;-70
2023/08/31 05:11:15;;;;;;;1.07;0.80;;;12.60;99.90;;;;;;5073583;28;20169;-70
2023/08/31 05:13:44;;;;;;;1.33;1.23;;;12.80;99.90;;;;;;5073525;28;20502;-70
2023/08/31 05:16:10;;;;;;;1.23;0.87;;;;;;;;;;5073474;28;20768;-70
2023/08/31 05:18:36;;;;;;;0.40;0.40;;;13.10;99.90;;;;;;5073325;28;20400;-70
2023/08/31 05:21:03;;;;;;;2.90;1.10;;;13.10;99.90;;;;;;5073028;28;20439;-71
2023/08/31 05:23:29;;;;;;;3.03;1.27;;;;;;;;;;5073068;28;20439;-71
2023/08/31 05:25:56;;;;;;;0.90;0.80;;;13.20;99.90;;;;;;5073047;28;20396;-70
2023/08/31 05:28:22;;;;;;;0.60;0.60;;;13.20;99.90;;;;;;5073409;28;20412;-72
2023/08/31 05:30:54;;;;;;;0.80;0.80;;;13.20;99.90;;;;;;5072933;28;20412;-72
2023/08/31 05:33:22;;;;;;;0.90;0.90;;;13.20;99.90;;;;;;5073661;28;20431;-73
2023/08/31 05:35:48;;;;;;;0.97;0.77;;;13.30;99.90;;;;;;5073201;28;20443;-72
2023/08/31 05:38:13;;;;;;;5.90;2.63;;;13.40;99.90;;;;;;5073546;28;20404;-72
2023/08/31 05:40:41;;;;;;;1.20;1.07;;;13.50;99.90;;;;;;5073671;28;20791;-71
2023/08/31 05:43:07;;;;;;;0.80;0.80;;;13.60;99.90;;;;;;5073452;28;20231;-71
2023/08/31 05:45:33;;;;;;;0.60;0.60;;;13.70;99.90;;;;;;5073158;28;20433;-71
2023/08/31 05:48:00;;;;;;;0.60;0.60;;;13.80;99.90;;;;;;5073321;28;20246;-71
2023/08/31 05:50:26;;;;;;;1.13;1.07;;;13.80;99.90;;;;;;5071715;28;21103;-71
2023/08/31 05:52:52;;;;;;;1.60;1.30;;;13.90;99.90;;;;;;5073244;28;20427;-71
2023/08/31 05:55:18;;;;;;;1.57;1.53;;;14.00;99.90;;;;;;5073192;28;20418;-70
2023/08/31 05:57:43;;;;;;;0.87;0.87;;;14.10;99.90;;;;;;5073434;28;20176;-71
2023/08/31 06:00:09;;;;;;;0.67;0.50;;;14.20;99.90;;;;;;5073548;28;20203;-72
2023/08/31 06:02:35;;;;;;;3.17;2.93;;;14.20;99.90;;;;;;5073207;28;20196;-70
2023/08/31 06:05:01;;;;;;;1.23;1.13;;;14.10;99.90;;;;;;5072888;28;20407;-70
2023/08/31 06:07:28;;;;;;;0.70;0.70;;;14.00;99.90;;;;;;5073112;28;20204;-71
2023/08/31 06:09:55;;;;;;;0.83;0.83;;;14.00;99.90;;;;;;5072742;28;20466;-71
2023/08/31 06:12:20;;;;;;;1.13;1.13;;;13.90;99.90;;;;;;5073291;28;20434;-70
2023/08/31 06:14:46;;;;;;;0.60;0.60;;;13.90;99.90;;;;;;5072973;28;20412;-70
2023/08/31 06:17:13;;;;;;;2.20;1.10;;;13.90;99.90;;;;;;5073712;28;20170;-70
2023/08/31 06:19:39;;;;;;;0.57;0.50;;;13.70;99.90;;;;;;5076860;28;20310;-70
2023/08/31 06:22:05;;;;;;;1.47;1.37;;;13.60;99.90;;;;;;5076657;28;20784;-70
2023/08/31 06:24:32;;;;;;;0.63;0.63;;;13.50;99.90;;;;;;5076822;28;20475;-70
2023/08/31 06:26:57;;;;;;;0.57;0.57;;;13.90;99.90;;;;;;5077051;28;20181;-71
2023/08/31 06:29:23;;;;;;;0.50;0.50;;;14.00;99.90;;;;;;5075791;28;20460;-70
2023/08/31 06:31:49;;;;;;;1.53;1.43;;;14.20;99.90;;;;;;5077147;28;20300;-71
2023/08/31 06:34:14;;;;;;;0.87;0.87;;;14.20;99.90;;;;;;5076372;28;20174;-70
2023/08/31 06:36:40;;;;;;;1.10;0.87;;;14.40;99.90;;;;;;5076096;28;20551;-71
2023/08/31 06:39:08;;;;;;;0.97;0.97;;;14.40;99.90;;;;;;5076305;28;20531;-70
2023/08/31 06:41:34;;;;;;;1.20;1.17;;;14.60;99.90;;;;;;5074680;28;20175;-71
2023/08/31 06:44:00;;;;;;;0.83;0.50;;;14.70;99.90;;;;;;5075248;28;20776;-71
2023/08/31 06:46:25;;;;;;;2.53;1.17;;;14.70;99.90;;;;;;5076904;28;20504;-71
2023/08/31 06:48:52;;;;;;;0.57;0.57;;;14.70;99.90;;;;;;5076108;28;20552;-71
2023/08/31 06:51:18;;;;;;;0.40;0.40;;;14.80;99.90;;;;;;5076205;28;20523;-70
2023/08/31 06:53:44;;;;;;;1.00;1.00;;;14.80;99.90;;;;;;5075441;28;20429;-70
2023/08/31 06:56:09;;;;;;;1.33;1.00;;;14.90;99.90;;;;;;5077433;28;20657;-70
2023/08/31 06:58:35;;;;;;;1.27;1.03;;;14.90;99.90;;;;;;5079970;28;20502;-71
2023/08/31 07:01:05;;;;;;;0.70;0.70;;;14.90;99.90;;;;;;5076062;28;20407;-71
2023/08/31 07:17:19;;;;;;;0.80;0.80;;;15.60;99.60;;;;;;5035873;28;20984;-72
2023/08/31 07:19:45;;;;;;;0.93;0.93;;;15.60;99.90;;;;;;5014078;28;20865;-72
2023/08/31 07:22:10;;;;;;;0.70;0.70;;;15.70;99.90;;;;;;5014379;28;20551;-72
2023/08/31 07:24:36;;;;;;;1.50;0.80;;;15.90;99.90;;;;;;5013817;28;20207;-72
2023/08/31 07:27:05;;;;;;;0.70;0.70;;;16.00;99.50;;;;;;5014502;28;20168;-72
2023/08/31 07:29:31;;;;;;;0.70;0.70;;;16.00;99.10;;;;;;5014083;28;20702;-72
2023/08/31 07:31:57;;;;;;;0.73;0.73;;;16.10;98.40;;;;;;5014363;28;20404;-71
2023/08/31 07:34:23;;;;;;;2.87;1.37;;;16.20;98.70;;;;;;5014196;28;20774;-70
2023/08/31 07:36:49;;;;;;;0.83;0.83;;;16.40;98.60;;;;;;5014307;28;20437;-71
2023/08/31 07:39:17;;;;;;;1.23;1.03;;;16.50;97.60;;;;;;5015940;28;20457;-72
2023/08/31 07:41:43;;;;;;;1.33;1.23;;;16.90;98.40;;;;;;5016096;28;20175;-71
2023/08/31 07:44:09;;;;;;;2.00;1.50;;;17.70;96.40;;;;;;5015491;28;20811;-73
2023/08/31 07:46:34;;;;;;;0.60;0.60;;;19.00;95.20;;;;;;5015434;28;20198;-73
2023/08/31 07:49:00;;;;;;;0.40;0.40;;;20.50;94.20;;;;;;5015331;28;20211;-73
2023/08/31 07:51:25;;;;;;;2.70;1.40;;;22.10;92.10;;;;;;5015091;28;20167;-73
2023/08/31 07:53:51;;;;;;;0.67;0.67;;;23.90;87.80;;;;;;5015354;28;20595;-71
2023/08/31 07:56:17;;;;;;;0.50;0.50;;;24.60;80.80;;;;;;5014205;28;20180;-73
2023/08/31 07:58:42;;;;;;;3.30;0.80;;;25.50;76.70;;;;;;5015324;28;20276;-71
2023/08/31 08:01:08;;;;;;;0.80;0.70;;;27.10;72.80;;;;;;5015207;28;20254;-73
2023/08/31 08:03:34;;;;;;;0.60;0.60;;;28.20;64.20;;;;;;5015043;28;20314;-74
2023/08/31 08:05:59;;;;;;;0.50;0.50;;;29.30;57.80;;;;;;5015054;28;20655;-73
2023/08/31 08:08:25;;;;;;;0.60;0.60;;;;;;;;;;5015084;28;20681;-73
2023/08/31 08:10:54;;;;;;;2.47;0.90;;;29.50;51.50;;;;;;5013732;28;20217;-74
2023/08/31 08:13:20;;;;;;;0.70;0.57;;;29.00;52.80;;;;;;5014905;28;20808;-73
2023/08/31 08:15:46;;;;;;;1.87;0.90;;;27.90;52.60;;;;;;5015150;28;20406;-73
2023/08/31 08:18:12;;;;;;;0.50;0.50;;;26.70;55.40;;;;;;5014624;28;20218;-71
2023/08/31 08:20:38;;;;;;;2.40;0.70;;;26.70;59.20;;;;;;5014546;28;20924;-73
2023/08/31 08:23:06;;;;;;;0.80;0.67;;;26.60;57.40;;;;;;5014852;28;20171;-72
2023/08/31 08:25:32;;;;;;;0.60;0.60;;;26.50;58.00;;;;;;5014944;28;20406;-72
2023/08/31 08:27:57;;;;;;;0.60;0.50;;;26.70;54.30;;;;;;5014761;28;20434;-72
2023/08/31 08:30:23;;;;;;;1.63;0.70;;;26.80;55.10;;;;;;5014779;28;20814;-71
2023/08/31 08:32:49;;;;;;;2.80;1.17;;;27.10;55.50;;;;;;5014510;28;20171;-72
2023/08/31 08:35:14;;;;;;;0.60;0.60;;;26.70;55.70;;;;;;5014649;28;20168;-72
2023/08/31 08:37:40;;;;;;;1.97;1.30;;;26.90;55.40;;;;;;5014535;28;20183;-72
2023/08/31 08:40:07;;;;;;;0.47;0.47;;;27.10;57.40;;;;;;5013849;28;20172;-71
2023/08/31 08:42:38;;;;;;;0.87;0.87;;;26.80;54.80;;;;;;5014383;28;20175;-72
2023/08/31 08:45:08;;;;;;;1.00;1.00;;;26.00;55.40;;;;;;5014617;28;20410;-72
2023/08/31 08:47:34;;;;;;;1.77;0.70;;;24.50;84.50;;;;;;5013737;28;20914;-72
2023/08/31 08:50:00;;;;;;;1.23;0.70;;;24.30;58.80;;;;;;5014725;28;20500;-71
2023/08/31 08:52:27;;;;;;;1.13;0.80;;;23.80;62.20;;;;;;5014076;28;20167;-72
2023/08/31 08:54:53;;;;;;;1.53;0.90;;;23.50;61.30;;;;;;5014635;28;20406;-72
2023/08/31 08:57:19;;;;;;;0.90;0.90;;;22.40;79.90;;;;;;5014277;28;20411;-72
2023/08/31 08:59:44;;;;;;;1.40;1.17;;;22.60;61.60;;;;;;5014284;28;20744;-73
2023/08/31 09:02:12;;;;;;;1.47;0.83;;;22.00;64.20;;;;;;5014314;28;20168;-72
2023/08/31 09:04:37;;;;;;;0.87;0.60;;;21.70;63.40;;;;;;5014462;28;20175;-73
2023/08/31 09:07:03;;;;;;;1.70;0.60;;;21.40;69.60;;;;;;5014447;28;20860;-72
2023/08/31 09:09:29;;;;;;;1.37;1.27;;;21.10;71.70;;;;;;5014522;28;20203;-72
2023/08/31 09:11:57;;;;;;;1.13;0.60;;;21.10;70.90;;;;;;5014594;28;20620;-72
2023/08/31 09:14:23;;;;;;;2.63;0.80;;;20.80;70.10;;;;;;5013640;28;20404;-73
2023/08/31 09:16:50;;;;;;;1.27;0.70;;;20.30;69.80;;;;;;5013853;28;20403;-71
2023/08/31 09:19:23;;;;;;;2.67;1.03;;;20.10;72.90;;;;;;5013547;28;20200;-72
2023/08/31 09:21:50;;;;;;;0.63;0.60;;;19.00;72.00;;;;;;5014139;28;20465;-72
2023/08/31 09:24:20;;;;;;;0.80;0.80;;;18.50;74.60;;;;;;5012330;28;20413;-71
2023/08/31 09:26:58;;;;;;;1.57;1.07;;;18.50;78.40;;;;;;5012151;28;20463;-72
2023/08/31 09:29:24;;;;;;;0.60;0.60;;;18.60;78.60;;;;;;5012368;28;20467;-72
2023/08/31 09:31:50;;;;;;;0.60;0.60;;;18.80;77.20;;;;;;5012889;28;20406;-71
2023/08/31 09:34:16;;;;;;;3.60;0.90;;;18.80;78.60;;;;;;5012732;28;20416;-72
2023/08/31 09:36:43;;;;;;;3.50;0.73;;;18.80;77.20;;;;;;5012877;28;20774;-73
2023/08/31 09:39:10;;;;;;;0.50;0.50;;;18.90;81.30;;;;;;5013174;28;20429;-71
2023/08/31 09:41:35;;;;;;;3.07;0.90;;;19.20;79.80;;;;;;5013851;28;20414;-72
2023/08/31 09:44:18;;;;;;;1.50;1.03;;;19.10;77.90;;;;;;5013676;28;20894;-73
2023/08/31 09:46:44;;;;;;;0.97;0.77;;;19.40;78.90;;;;;;5014026;28;20186;-71
2023/08/31 09:49:14;;;;;;;1.60;1.50;;;19.70;77.90;;;;;;5013540;28;20500;-72
2023/08/31 09:51:44;;;;;;;1.83;1.00;;;19.20;79.80;;;;;;5015227;28;20406;-71
2023/08/31 09:54:18;;;;;;;0.70;0.70;;;19.50;78.80;;;;;;5017658;28;20399;-71
2023/08/31 09:56:46;;;;;;;0.60;0.60;;;19.20;81.00;;;;;;5017865;28;20402;-72
2023/08/31 09:59:14;;;;;;;1.10;1.00;;;18.80;80.40;;;;;;5017926;28;20456;-72
2023/08/31 10:01:40;;;;;;;0.50;0.50;;;18.50;82.50;;;;;;5018112;28;20402;-73
2023/08/31 10:04:08;;;;;;;1.13;0.73;;;18.20;84.60;;;;;;5017261;28;20452;-72
2023/08/31 10:06:38;;;;;;;0.40;0.40;;;18.10;83.90;;;;;;5017090;28;20522;-73
2023/08/31 10:09:04;;;;;;;0.50;0.47;;;18.10;85.60;;;;;;5017498;28;20454;-73
2023/08/31 10:11:30;;;;;;;0.80;0.80;;;18.10;85.20;;;;;;5017050;28;20497;-72
2023/08/31 10:13:57;;;;;;;1.33;0.60;;;18.30;84.30;;;;;;5016986;28;20528;-73
2023/08/31 10:16:27;;;;;;;0.57;0.57;;;18.60;85.20;;;;;;5016842;28;20781;-71
2023/08/31 10:18:53;;;;;;;0.97;0.93;;;18.80;85.00;;;;;;5015708;28;20857;-72
2023/08/31 10:21:19;;;;;;;1.37;0.87;;;19.00;84.70;;;;;;5016600;28;20513;-71
2023/08/31 10:23:46;;;;;;;1.43;1.33;;;19.00;83.70;;;;;;5014991;28;20186;-72
2023/08/31 10:26:11;;;;;;;3.87;0.57;;;19.00;82.00;;;;;;5015556;28;20410;-72
2023/08/31 10:28:43;;;;;;;0.60;0.40;;;18.70;81.90;;;;;;5015888;28;20487;-72
2023/08/31 10:31:22;;;;;;;0.63;0.63;;;18.90;84.40;;;;;;5016259;28;20192;-72
2023/08/31 10:33:57;;;;;;;0.60;0.60;;;19.00;83.20;;;;;;5016280;28;20463;-72
2023/08/31 10:36:43;;;;;;;3.90;1.27;;;18.90;84.00;;;;;;5016561;28;20497;-72
2023/08/31 10:39:16;;;;;;;1.60;0.60;;;19.10;82.60;;;;;;5016938;28;20422;-71
2023/08/31 10:41:42;;;;;;;2.63;1.20;;;19.20;81.10;;;;;;5017031;28;20405;-72
2023/08/31 10:44:24;;;;;;;0.70;0.60;;;19.40;82.10;;;;;;5016624;28;20486;-71
2023/08/31 10:46:51;;;;;;;5.43;1.30;;;19.60;81.40;;;;;;5016433;28;20524;-72
2023/08/31 10:49:19;;;;;;;0.93;0.67;;;19.50;79.30;;;;;;5016457;28;20492;-73
2023/08/31 10:51:49;;;;;;;4.03;1.20;;;19.40;76.50;;;;;;5016704;28;20398;-72
2023/08/31 10:54:23;;;;;;;0.57;0.57;;;19.40;77.20;;;;;;5016287;28;20394;-71
2023/08/31 10:56:54;;;;;;;0.60;0.60;;;19.20;81.40;;;;;;5016633;28;20485;-72
2023/08/31 10:59:21;;;;;;;0.73;0.60;;;18.90;83.90;;;;;;5016335;28;20437;-73
2023/08/31 11:01:56;;;;;;;0.70;0.70;;;18.90;82.00;;;;;;5016536;28;20455;-73
2023/08/31 11:04:29;;;;;;;0.97;0.70;;;19.10;80.50;;;;;;5015655;28;20409;-72
2023/08/31 11:07:17;;;;;;;1.90;0.80;;;19.00;79.00;;;;;;5016751;28;20406;-73
2023/08/31 11:09:45;;;;;;;0.70;0.70;;;19.00;80.80;;;;;;5016615;28;20447;-72
2023/08/31 11:12:11;;;;;;;0.50;0.50;;;19.00;82.80;;;;;;5016024;28;20434;-72
2023/08/31 11:14:37;;;;;;;1.00;1.00;;;19.30;84.60;;;;;;5016382;28;20910;-72
2023/08/31 11:17:05;;;;;;;0.87;0.87;;;19.60;84.10;;;;;;5016274;28;20506;-73
2023/08/31 11:19:32;;;;;;;1.43;0.40;;;20.00;82.00;;;;;;5015950;28;20504;-72
2023/08/31 11:22:00;;;;;;;0.90;0.90;;;19.80;78.70;;;;;;5016258;28;20411;-73
2023/08/31 11:24:26;;;;;;;1.63;1.53;;;;;;;;;;5015938;28;20412;-72
2023/08/31 11:26:52;;;;;;;1.27;1.17;;;19.60;78.10;;;;;;5016016;28;20883;-73
2023/08/31 11:29:18;;;;;;;1.10;0.77;;;19.70;78.40;;;;;;5015943;28;20549;-73
2023/08/31 11:31:44;;;;;;;2.40;0.70;;;19.70;80.00;;;;;;5014577;28;20516;-73
2023/08/31 11:34:17;;;;;;;0.60;0.60;;;19.80;77.70;;;;;;5015648;28;20406;-71
2023/08/31 11:36:46;;;;;;;0.93;0.90;;;20.10;79.00;;;;;;5016149;28;20173;-70
2023/08/31 11:39:13;;;;;;;1.13;0.80;;;20.20;76.90;;;;;;5015734;28;20513;-71
2023/08/31 11:41:41;;;;;;;1.10;1.00;;;19.90;77.80;;;;;;5015654;28;20913;-71
2023/08/31 11:44:12;;;;;;;0.67;0.60;;;19.60;79.40;;;;;;5015362;28;20777;-71
2023/08/31 11:46:41;;;;;;;0.70;0.70;;;19.70;79.00;;;;;;5015744;28;20413;-72
2023/08/31 11:49:07;;;;;;;1.33;1.33;;;19.80;83.10;;;;;;5015424;28;20455;-73
2023/08/31 11:51:34;;;;;;;0.60;0.60;;;19.90;78.30;;;;;;5015598;28;20411;-73
2023/08/31 11:54:04;;;;;;;2.40;1.20;;;20.00;79.70;;;;;;5015384;28;20640;-73
2023/08/31 11:56:43;;;;;;;0.90;0.90;;;20.00;79.10;;;;;;5015444;28;20928;-72
2023/08/31 11:59:14;;;;;;;0.83;0.83;;;19.90;80.30;;;;;;5015458;28;20430;-72
2023/08/31 12:01:42;;;;;;;0.80;0.80;;;19.80;83.20;;;;;;5015369;28;20398;-71
2023/08/31 12:04:22;;;;;;;1.20;1.10;;;19.60;83.80;;;;;;5015200;28;20498;-73
2023/08/31 12:06:50;;;;;;;1.23;0.87;;;19.60;82.70;;;;;;5014183;28;20418;-72
2023/08/31 12:09:16;;;;;;;1.60;1.27;;;19.80;83.50;;;;;;5015187;28;20490;-72
2023/08/31 12:11:42;;;;;;;1.70;1.27;;;20.00;82.20;;;;;;5013936;28;20859;-72
2023/08/31 12:14:24;;;;;;;1.70;1.60;;;20.20;81.10;;;;;;5014945;28;20165;-72
2023/08/31 12:16:51;;;;;;;4.73;1.20;;;20.50;82.70;;;;;;5014377;28;20706;-72
2023/08/31 12:19:17;;;;;;;1.03;0.87;;;20.50;80.90;;;;;;5014808;28;20820;-73
2023/08/31 12:21:45;;;;;;;1.90;0.90;;;20.70;82.90;;;;;;5015054;28;20411;-73
2023/08/31 12:24:11;;;;;;;0.80;0.80;;;20.80;78.70;;;;;;5014735;28;20408;-73
2023/08/31 12:26:37;;;;;;;0.80;0.80;;;20.80;78.40;;;;;;5015037;28;20419;-72
2023/08/31 12:29:07;;;;;;;2.30;1.53;;;21.00;74.70;;;;;;5014625;28;20447;-73
2023/08/31 12:31:33;;;;;;;0.50;0.50;;;21.00;75.40;;;;;;5014947;28;20395;-72
2023/08/31 12:34:05;;;;;;;0.60;0.60;;;21.00;76.20;;;;;;5014516;28;20470;-73
2023/08/31 12:36:32;;;;;;;0.53;0.53;;;21.00;75.20;;;;;;5014652;28;20398;-72
2023/08/31 12:39:01;;;;;;;1.00;0.57;;;;;;;;;;5014729;28;20436;-72
2023/08/31 12:41:28;;;;;;;0.57;0.57;;;20.00;77.40;;;;;;5014604;28;20775;-72
2023/08/31 12:43:54;;;;;;;1.17;0.97;;;20.00;77.40;;;;;;5014341;28;20415;-72
2023/08/31 12:46:20;;;;;;;2.77;1.07;;;;;;;;;;5014650;28;20410;-71
2023/08/31 12:48:45;;;;;;;1.47;0.60;;;20.30;80.00;;;;;;5014346;28;20648;-71
2023/08/31 12:51:11;;;;;;;3.07;0.90;;;20.50;79.70;;;;;;5014417;28;20403;-73
2023/08/31 12:53:40;;;;;;;0.60;0.60;;;20.50;76.80;;;;;;5014369;28;20170;-72
2023/08/31 12:56:06;;;;;;;5.23;1.40;;;20.50;79.00;;;;;;5014405;28;20172;-73
2023/08/31 12:58:32;;;;;;;0.77;0.67;;;20.30;77.20;;;;;;5013065;28;20446;-71
2023/08/31 13:00:59;;;;;;;0.73;0.70;;;20.40;77.10;;;;;;5014230;28;20184;-73
2023/08/31 13:03:25;;;;;;;8.80;3.03;;;20.10;78.10;;;;;;5014072;28;20433;-73